Time;durP1;ratioP1;P1;durP2;ratioP2;P2;SDS_P1;SDS_P2;PMS_P1;PMS_P2;Temp;Humidity;BMP_temperature;BMP_pressure;BME280_temperature;BME280_humidity;BME280_pressure;Samples;Min_cycle;Max_cycle;Signal;HPM_P1;HPM_P2
2023/10/12 00:00:37;;;;;;;27.60;21.75;;;;;22.30;100062.00;;;;2058822;28;20672;-58
2023/10/12 00:01:59;;;;;;;27.77;21.73;;;;;22.20;100065.00;;;;2060635;28;20302;-58
2023/10/12 00:02:59;;;;;;;27.98;22.20;;;;;22.20;100054.00;;;;2059100;28;20269;-57
2023/10/12 00:04:07;;;;;;;25.80;20.33;;;;;22.20;100057.00;;;;2065893;28;20225;-57
2023/10/12 00:05:11;;;;;;;26.15;20.30;;;;;22.30;100063.00;;;;2065943;28;20250;-57
2023/10/12 00:06:13;;;;;;;25.67;21.02;;;;;22.30;100056.00;;;;2066025;28;20213;-58
2023/10/12 00:07:19;;;;;;;26.70;20.25;;;;;22.20;100069.00;;;;2053557;28;20586;-58
2023/10/12 00:08:31;;;;;;;26.52;20.00;;;;;22.20;100066.00;;;;2063025;28;20235;-57
2023/10/12 00:09:31;;;;;;;24.08;18.60;;;;;22.30;100066.00;;;;2067726;28;20698;-57
2023/10/12 00:10:40;;;;;;;22.30;17.37;;;;;22.20;100065.00;;;;2069832;28;20293;-58
2023/10/12 00:11:46;;;;;;;23.88;18.67;;;;;22.20;100067.00;;;;2059083;28;20215;-57
2023/10/12 00:12:46;;;;;;;25.55;19.75;;;;;22.20;100064.00;;;;2060795;28;20264;-58
2023/10/12 00:13:51;;;;;;;21.90;17.07;;;;;22.20;100049.00;;;;2066380;28;20206;-58
2023/10/12 00:14:54;;;;;;;23.75;19.50;;;;;22.20;100042.00;;;;2064555;28;20221;-57
2023/10/12 00:15:56;;;;;;;22.77;16.42;;;;;22.20;100042.00;;;;2067883;28;20705;-57
2023/10/12 00:16:57;;;;;;;23.02;17.92;;;;;22.20;100039.00;;;;2066152;28;20254;-57
2023/10/12 00:18:03;;;;;;;24.80;18.07;;;;;22.20;100028.00;;;;2058164;28;20210;-57
2023/10/12 00:19:05;;;;;;;19.40;16.33;;;;;21.80;100028.00;;;;2068231;28;20909;-57
2023/10/12 00:20:12;;;;;;;23.40;18.10;;;;;22.20;100025.00;;;;2068675;28;20691;-58
2023/10/12 00:21:18;;;;;;;22.77;16.75;;;;;22.20;100038.00;;;;2065639;28;20214;-57
2023/10/12 00:22:19;;;;;;;20.60;17.30;;;;;22.20;100032.00;;;;2055165;28;20222;-57
2023/10/12 00:23:19;;;;;;;22.27;15.60;;;;;22.20;100031.00;;;;2062835;28;20590;-58
2023/10/12 00:24:20;;;;;;;19.83;15.53;;;;;22.20;100024.00;;;;2062517;28;20306;-57
2023/10/12 00:25:20;;;;;;;18.43;15.07;;;;;22.20;100023.00;;;;2070092;28;20309;-58
2023/10/12 00:26:22;;;;;;;22.20;17.33;;;;;22.20;100022.00;;;;2069026;28;20218;-57
2023/10/12 00:27:23;;;;;;;20.33;16.08;;;;;22.20;100023.00;;;;2065644;28;20221;-58
2023/10/12 00:28:23;;;;;;;17.77;14.33;;;;;22.20;100026.00;;;;2071202;28;20230;-58
2023/10/12 00:29:24;;;;;;;18.50;14.97;;;;;22.20;100025.00;;;;2071569;28;20246;-58
2023/10/12 00:30:24;;;;;;;17.57;15.13;;;;;22.20;100024.00;;;;2068401;28;20218;-57
2023/10/12 00:31:25;;;;;;;20.57;16.23;;;;;22.20;100027.00;;;;2075671;28;20779;-57
2023/10/12 00:32:26;;;;;;;18.97;14.90;;;;;22.20;100031.00;;;;2058329;28;20690;-57
2023/10/12 00:33:26;;;;;;;21.10;15.10;;;;;22.20;100019.00;;;;2064245;28;20229;-58
2023/10/12 00:34:27;;;;;;;19.30;15.07;;;;;22.20;100022.00;;;;2059099;28;20489;-57
2023/10/12 00:35:28;;;;;;;19.10;14.40;;;;;22.20;100022.00;;;;2064038;28;20647;-57
2023/10/12 00:36:28;;;;;;;20.00;15.23;;;;;22.20;100036.00;;;;2074670;28;20225;-57
2023/10/12 00:37:32;;;;;;;21.03;15.37;;;;;22.20;100030.00;;;;2055200;28;20231;-57
2023/10/12 00:38:32;;;;;;;19.48;13.52;;;;;22.20;100040.00;;;;2073693;28;20305;-57
2023/10/12 00:39:47;;;;;;;19.90;13.57;;;;;22.20;100027.00;;;;2063774;28;21025;-58
2023/10/12 00:40:50;;;;;;;19.23;14.55;;;;;22.20;100037.00;;;;2066874;28;20276;-58
2023/10/12 00:41:52;;;;;;;16.10;12.98;;;;;22.20;100042.00;;;;2059747;28;20310;-57
2023/10/12 00:42:53;;;;;;;14.80;13.02;;;;;22.20;100035.00;;;;2056249;28;20722;-58
2023/10/12 00:44:08;;;;;;;19.30;13.48;;;;;22.20;100048.00;;;;2072893;28;20329;-57
2023/10/12 00:45:19;;;;;;;15.60;12.77;;;;;22.20;100043.00;;;;2055546;28;21148;-58
2023/10/12 00:47:44;;;;;;;16.85;14.43;;;;;22.20;100045.00;;;;2050424;28;20297;-56
2023/10/12 00:49:13;;;;;;;16.23;13.15;;;;;22.20;100047.00;;;;2059455;28;20691;-58
2023/10/12 00:50:11;;;;;;;14.32;12.25;;;;;22.20;100052.00;;;;2065441;28;20210;-57
2023/10/12 00:51:14;;;;;;;16.45;11.70;;;;;21.80;100046.00;;;;2063627;28;20935;-57
2023/10/12 00:52:23;;;;;;;15.30;12.00;;;;;22.20;100044.00;;;;2046150;28;20229;-58
2023/10/12 00:53:31;;;;;;;14.57;11.85;;;;;22.20;100027.00;;;;2058483;28;20227;-58
2023/10/12 00:55:37;;;;;;;15.48;11.68;;;;;22.20;100042.00;;;;2056455;28;20222;-57
2023/10/12 00:56:43;;;;;;;14.57;12.23;;;;;22.20;100048.00;;;;2052198;28;20216;-57
2023/10/12 00:57:44;;;;;;;16.40;12.40;;;;;22.20;100049.00;;;;2039008;28;20228;-59
2023/10/12 00:58:44;;;;;;;13.90;10.73;;;;;22.20;100051.00;;;;2065678;28;20223;-57
2023/10/12 00:59:46;;;;;;;15.50;11.87;;;;;22.20;100052.00;;;;2067184;28;20468;-58
2023/10/12 01:00:53;;;;;;;16.67;11.55;;;;;22.20;100060.00;;;;2068007;28;20304;-57
2023/10/12 01:01:53;;;;;;;13.48;11.52;;;;;22.20;100063.00;;;;2068914;28;20295;-58
2023/10/12 01:03:35;;;;;;;13.13;11.20;;;;;22.20;100060.00;;;;2060830;28;20217;-57
2023/10/12 01:04:17;;;;;;;12.40;10.32;;;;;22.20;100069.00;;;;2055234;28;20231;-58
2023/10/12 01:05:20;;;;;;;16.53;11.63;;;;;22.20;100067.00;;;;2062211;28;20222;-58
2023/10/12 01:07:25;;;;;;;16.38;12.40;;;;;22.20;100076.00;;;;2059004;28;20225;-57
2023/10/12 01:08:30;;;;;;;14.67;11.90;;;;;22.20;100076.00;;;;2064491;28;20322;-57
2023/10/12 01:09:39;;;;;;;16.98;11.27;;;;;22.20;100077.00;;;;2061902;28;20605;-58
2023/10/12 01:10:41;;;;;;;17.50;11.50;;;;;22.20;100080.00;;;;2067962;28;20218;-58
2023/10/12 01:11:43;;;;;;;14.73;11.60;;;;;22.20;100079.00;;;;2067039;28;21165;-58
2023/10/12 01:12:45;;;;;;;14.43;10.77;;;;;22.20;100083.00;;;;2061003;28;20283;-57
2023/10/12 01:15:12;;;;;;;12.50;9.95;;;;;22.20;100084.00;;;;2065984;28;20964;-58
2023/10/12 01:16:58;;;;;;;11.30;10.07;;;;;22.20;100087.00;;;;2063507;28;20219;-57
2023/10/12 01:17:35;;;;;;;13.32;10.75;;;;;22.20;100082.00;;;;2050055;28;20242;-57
2023/10/12 01:18:35;;;;;;;13.00;9.98;;;;;22.20;100083.00;;;;2062643;28;20290;-58
2023/10/12 01:19:44;;;;;;;11.83;9.57;;;;;22.20;100082.00;;;;2060566;28;20218;-57
2023/10/12 01:20:45;;;;;;;13.63;10.52;;;;;22.20;100075.00;;;;2056402;28;20686;-61
2023/10/12 01:21:45;;;;;;;13.63;9.57;;;;;22.20;100078.00;;;;2068253;28;20244;-59
2023/10/12 01:22:47;;;;;;;12.87;9.27;;;;;22.20;100086.00;;;;2065276;28;20217;-59
2023/10/12 01:23:50;;;;;;;14.07;10.45;;;;;22.20;100069.00;;;;2066925;28;20210;-58
2023/10/12 01:25:52;;;;;;;14.53;10.17;;;;;22.20;100067.00;;;;2067279;28;20218;-58
2023/10/12 01:26:53;;;;;;;11.68;10.10;;;;;22.20;100074.00;;;;2066220;28;20218;-58
2023/10/12 01:27:53;;;;;;;10.93;9.25;;;;;22.20;100078.00;;;;2050460;28;20235;-58
2023/10/12 01:28:55;;;;;;;12.20;9.33;;;;;22.20;100079.00;;;;2066114;28;20217;-57
2023/10/12 01:30:13;;;;;;;12.07;9.70;;;;;21.70;100088.00;;;;2069401;28;20632;-57
2023/10/12 01:31:13;;;;;;;10.55;9.27;;;;;22.20;100096.00;;;;2065139;28;20280;-57
2023/10/12 01:33:18;;;;;;;13.43;10.23;;;;;22.20;100098.00;;;;2063789;28;20222;-58
2023/10/12 01:34:18;;;;;;;11.18;9.27;;;;;22.20;100115.00;;;;2063034;28;20257;-58
2023/10/12 01:35:26;;;;;;;11.07;9.50;;;;;22.20;100099.00;;;;2062963;28;20479;-58
2023/10/12 01:36:31;;;;;;;12.35;9.23;;;;;22.20;100100.00;;;;2064975;28;20226;-57
2023/10/12 01:37:41;;;;;;;11.00;9.77;;;;;22.20;100084.00;;;;2051477;28;20293;-57
2023/10/12 01:38:43;;;;;;;10.65;8.77;;;;;22.20;100095.00;;;;2067732;28;20256;-57
2023/10/12 01:39:54;;;;;;;11.65;8.23;;;;;22.20;100099.00;;;;2056963;28;20599;-57
2023/10/12 01:40:55;;;;;;;11.90;8.70;;;;;22.20;100100.00;;;;2061527;28;20219;-57
2023/10/12 01:41:56;;;;;;;9.80;8.30;;;;;22.20;100095.00;;;;2068825;28;20584;-57
2023/10/12 01:42:57;;;;;;;9.68;8.65;;;;;22.20;100098.00;;;;2052205;28;20262;-57
2023/10/12 01:43:57;;;;;;;12.20;8.73;;;;;22.20;100099.00;;;;2063180;28;20205;-57
2023/10/12 01:44:58;;;;;;;12.53;8.17;;;;;22.20;100103.00;;;;2055950;28;20203;-57
2023/10/12 01:46:08;;;;;;;12.18;8.70;;;;;22.20;100113.00;;;;2067032;28;20467;-57
2023/10/12 01:47:10;;;;;;;12.25;8.63;;;;;22.20;100110.00;;;;2051939;28;20235;-57
2023/10/12 01:48:22;;;;;;;12.13;8.18;;;;;22.20;100111.00;;;;2061438;28;20227;-57
2023/10/12 01:49:22;;;;;;;8.65;7.25;;;;;22.20;100163.00;;;;2065686;28;20221;-57
2023/10/12 01:50:27;;;;;;;12.17;7.90;;;;;22.20;100120.00;;;;2071200;28;20702;-56
2023/10/12 01:51:29;;;;;;;9.88;8.38;;;;;22.20;100125.00;;;;2068679;28;20297;-56
2023/10/12 01:52:29;;;;;;;11.27;8.85;;;;;22.20;100127.00;;;;2059067;28;20234;-57
2023/10/12 01:53:32;;;;;;;11.43;9.17;;;;;22.20;100136.00;;;;2065579;28;20250;-57
2023/10/12 01:54:32;;;;;;;17.08;8.32;;;;;22.20;100142.00;;;;2068543;28;20225;-57
2023/10/12 01:55:32;;;;;;;8.67;7.70;;;;;22.20;100146.00;;;;2064813;28;20229;-57
2023/10/12 01:56:33;;;;;;;10.30;7.80;;;;;22.20;100143.00;;;;2066736;28;20215;-57
2023/10/12 01:57:44;;;;;;;9.60;7.77;;;;;22.20;100147.00;;;;2057363;28;20589;-57
2023/10/12 01:58:48;;;;;;;10.10;7.75;;;;;22.20;100145.00;;;;2066067;28;20488;-57
2023/10/12 01:59:49;;;;;;;12.95;7.85;;;;;22.20;100146.00;;;;2070920;28;20225;-57
2023/10/12 02:00:52;;;;;;;9.60;7.17;;;;;22.20;100146.00;;;;2060415;28;20234;-57
2023/10/12 02:02:14;;;;;;;9.90;7.00;;;;;22.20;100157.00;;;;2069037;28;20464;-57
2023/10/12 02:03:31;;;;;;;10.73;8.00;;;;;22.20;100152.00;;;;2071924;28;20291;-57
2023/10/12 02:04:32;;;;;;;11.80;7.90;;;;;22.20;100149.00;;;;2063958;28;20214;-57
2023/10/12 02:05:36;;;;;;;8.63;7.10;;;;;22.10;100218.00;;;;2064411;28;20721;-57
2023/10/12 02:06:39;;;;;;;10.20;7.30;;;;;22.20;100156.00;;;;2065293;28;20683;-57
2023/10/12 02:07:39;;;;;;;9.77;8.05;;;;;22.20;100155.00;;;;2062903;28;20753;-57
2023/10/12 02:08:40;;;;;;;10.13;8.10;;;;;22.20;100147.00;;;;2070070;28;20257;-57
2023/10/12 02:09:42;;;;;;;10.27;6.95;;;;;22.20;100155.00;;;;2067206;28;20222;-57
2023/10/12 02:10:43;;;;;;;9.45;6.45;;;;;22.10;100164.00;;;;2065776;28;20225;-57
2023/10/12 02:11:53;;;;;;;9.73;7.60;;;;;22.10;100174.00;;;;2066375;28;20301;-57
2023/10/12 02:12:55;;;;;;;11.38;7.47;;;;;22.20;100175.00;;;;2054146;28;20835;-57
2023/10/12 02:13:55;;;;;;;7.47;6.75;;;;;22.10;100169.00;;;;2058218;28;20641;-57
2023/10/12 02:14:56;;;;;;;9.37;7.70;;;;;22.10;100164.00;;;;2061835;28;20215;-57
2023/10/12 02:15:58;;;;;;;8.50;6.93;;;;;22.20;100180.00;;;;2065860;28;20215;-57
2023/10/12 02:17:02;;;;;;;8.98;7.35;;;;;22.20;100185.00;;;;2063493;28;20218;-57
2023/10/12 02:18:10;;;;;;;9.90;7.07;;;;;22.10;100175.00;;;;2055421;28;20772;-56
2023/10/12 02:19:19;;;;;;;9.77;7.38;;;;;22.20;100188.00;;;;2065561;28;20207;-57
2023/10/12 02:20:19;;;;;;;8.82;7.85;;;;;22.20;100201.00;;;;2067693;28;20230;-57
2023/10/12 02:21:23;;;;;;;10.77;7.23;;;;;22.20;100191.00;;;;2064135;28;20230;-57
2023/10/12 02:22:25;;;;;;;8.55;7.05;;;;;22.10;100196.00;;;;2060237;28;20215;-57
2023/10/12 02:23:32;;;;;;;9.70;6.93;;;;;22.20;100211.00;;;;2072957;28;20297;-57
2023/10/12 02:24:35;;;;;;;10.20;7.88;;;;;22.20;100189.00;;;;2073082;28;20336;-57
2023/10/12 02:25:37;;;;;;;8.68;7.05;;;;;22.20;100186.00;;;;2065800;28;20206;-57
2023/10/12 02:26:38;;;;;;;7.72;6.90;;;;;22.10;100193.00;;;;2060106;28;21022;-57
2023/10/12 02:27:43;;;;;;;9.80;7.05;;;;;22.20;100196.00;;;;2054953;28;20233;-57
2023/10/12 02:28:46;;;;;;;9.38;6.80;;;;;22.10;100189.00;;;;2066933;28;20225;-57
2023/10/12 02:29:49;;;;;;;10.98;6.57;;;;;22.20;100190.00;;;;2065907;28;20218;-57
2023/10/12 02:30:56;;;;;;;9.75;7.78;;;;;22.10;100186.00;;;;2063166;28;20283;-56
2023/10/12 02:31:58;;;;;;;9.07;7.30;;;;;22.10;100191.00;;;;2068961;28;20225;-57
2023/10/12 02:33:06;;;;;;;7.47;6.72;;;;;22.20;100182.00;;;;2057882;28;20214;-57
2023/10/12 02:34:12;;;;;;;13.00;7.13;;;;;22.10;100189.00;;;;2061938;28;20294;-57
2023/10/12 02:35:15;;;;;;;10.90;7.47;;;;;22.10;100199.00;;;;2059202;28;20293;-57
2023/10/12 02:36:18;;;;;;;8.35;6.80;;;;;22.10;100197.00;;;;2079988;28;20232;-57
2023/10/12 02:37:18;;;;;;;8.65;6.47;;;;;22.10;100205.00;;;;2062871;28;20215;-57
2023/10/12 02:38:21;;;;;;;6.93;6.10;;;;;22.20;100207.00;;;;2067768;28;21009;-57
2023/10/12 02:39:21;;;;;;;9.85;7.65;;;;;22.10;100207.00;;;;2068575;28;20305;-57
2023/10/12 02:40:22;;;;;;;8.20;6.23;;;;;22.10;100216.00;;;;2066076;28;20225;-57
2023/10/12 02:41:24;;;;;;;9.83;6.80;;;;;22.10;100215.00;;;;2066324;28;20265;-57
2023/10/12 02:42:41;;;;;;;9.93;6.85;;;;;22.20;100202.00;;;;2057148;28;20535;-58
2023/10/12 02:43:49;;;;;;;8.63;6.97;;;;;22.20;100209.00;;;;2060688;28;20310;-57
2023/10/12 02:45:59;;;;;;;8.50;7.53;;;;;22.10;100198.00;;;;2059698;28;20293;-57
2023/10/12 02:47:11;;;;;;;9.60;6.57;;;;;22.20;100203.00;;;;2062482;28;20219;-57
2023/10/12 02:48:23;;;;;;;7.53;6.68;;;;;22.20;100197.00;;;;2069694;28;20226;-57
2023/10/12 02:49:24;;;;;;;7.75;6.95;;;;;22.10;100233.00;;;;2066317;28;20253;-57
2023/10/12 02:50:29;;;;;;;8.87;6.77;;;;;22.10;100197.00;;;;2067120;28;20740;-57
2023/10/12 02:51:30;;;;;;;12.25;7.63;;;;;22.10;100191.00;;;;2064674;28;20465;-57
2023/10/12 02:52:32;;;;;;;7.80;6.30;;;;;22.10;100189.00;;;;2056950;28;20233;-57
2023/10/12 02:53:34;;;;;;;8.25;6.65;;;;;22.10;100195.00;;;;2066757;28;20762;-57
2023/10/12 02:54:47;;;;;;;8.43;7.35;;;;;22.20;100181.00;;;;2069594;28;20217;-57
2023/10/12 02:55:51;;;;;;;7.70;6.07;;;;;22.10;100183.00;;;;2067973;28;20226;-57
2023/10/12 02:56:56;;;;;;;7.57;6.43;;;;;22.20;100174.00;;;;2067686;28;20647;-57
2023/10/12 02:57:59;;;;;;;7.60;6.10;;;;;22.10;100174.00;;;;2056916;28;20225;-57
2023/10/12 02:59:04;;;;;;;11.25;7.20;;;;;22.10;100168.00;;;;2067393;28;20230;-57
2023/10/12 03:00:12;;;;;;;9.45;6.97;;;;;22.10;100173.00;;;;2068290;28;20217;-57
2023/10/12 03:01:18;;;;;;;8.63;6.70;;;;;22.10;100174.00;;;;2064439;28;20228;-57
2023/10/12 03:02:22;;;;;;;9.20;6.70;;;;;22.10;100169.00;;;;2050027;28;20269;-57
2023/10/12 03:03:25;;;;;;;7.47;6.63;;;;;22.10;100160.00;;;;2061840;28;20214;-57
2023/10/12 03:04:25;;;;;;;9.30;7.15;;;;;22.10;100160.00;;;;2058618;28;20226;-58
2023/10/12 03:05:34;;;;;;;8.40;6.23;;;;;22.10;100171.00;;;;2064162;28;20225;-58
2023/10/12 03:06:44;;;;;;;7.45;6.22;;;;;22.10;100169.00;;;;2067808;28;20750;-57
2023/10/12 03:07:46;;;;;;;7.30;6.60;;;;;22.10;100167.00;;;;2058648;28;20225;-57
2023/10/12 03:09:01;;;;;;;8.27;7.00;;;;;22.10;100162.00;;;;2064589;28;20284;-57
2023/10/12 03:10:06;;;;;;;9.23;6.80;;;;;22.10;100165.00;;;;2059353;28;20218;-57
2023/10/12 03:11:12;;;;;;;9.60;6.47;;;;;22.10;100166.00;;;;2067089;28;20210;-57
2023/10/12 03:12:13;;;;;;;7.80;6.32;;;;;22.10;100169.00;;;;2058767;28;20248;-58
2023/10/12 03:13:25;;;;;;;8.57;6.32;;;;;22.10;100175.00;;;;2071627;28;20218;-57
2023/10/12 03:14:28;;;;;;;8.18;5.88;;;;;22.10;100183.00;;;;2066234;28;20223;-57
2023/10/12 03:15:49;;;;;;;7.60;6.85;;;;;22.10;100186.00;;;;2064832;28;20588;-57
2023/10/12 03:16:51;;;;;;;9.68;6.97;;;;;22.10;100181.00;;;;2069252;28;20226;-57
2023/10/12 03:17:58;;;;;;;9.30;7.00;;;;;22.10;100183.00;;;;2058093;28;20211;-57
2023/10/12 03:19:00;;;;;;;8.18;6.20;;;;;22.10;100185.00;;;;2070926;28;20773;-57
2023/10/12 03:20:17;;;;;;;9.73;6.40;;;;;22.10;100187.00;;;;2066837;28;20228;-58
2023/10/12 03:21:17;;;;;;;8.32;6.22;;;;;22.10;100184.00;;;;2063450;28;20257;-57
2023/10/12 03:22:25;;;;;;;7.67;5.90;;;;;22.10;100178.00;;;;2058463;28;20608;-57
2023/10/12 03:23:27;;;;;;;6.88;6.00;;;;;22.10;100166.00;;;;2067285;28;20215;-60
2023/10/12 03:24:43;;;;;;;8.57;6.10;;;;;22.10;100162.00;;;;2071638;28;20218;-57
2023/10/12 03:25:45;;;;;;;7.90;6.15;;;;;22.10;100152.00;;;;2072245;28;20225;-57
2023/10/12 03:26:49;;;;;;;7.55;5.53;;;;;22.10;100147.00;;;;2070241;28;20225;-57
2023/10/12 03:27:53;;;;;;;8.07;5.57;;;;;22.10;100151.00;;;;2057647;28;20222;-57
2023/10/12 03:30:10;;;;;;;7.93;6.22;;;;;22.10;100145.00;;;;2067296;28;20233;-57
2023/10/12 03:31:23;;;;;;;6.73;5.90;;;;;22.10;100006.00;;;;2063668;28;20246;-57
2023/10/12 03:32:25;;;;;;;9.10;6.72;;;;;22.10;100146.00;;;;2067096;28;20487;-57
2023/10/12 03:33:28;;;;;;;6.85;5.80;;;;;22.10;100149.00;;;;2076970;28;20206;-57
2023/10/12 03:35:44;;;;;;;7.38;5.82;;;;;22.10;100136.00;;;;2069966;28;20210;-57
2023/10/12 03:36:47;;;;;;;7.72;5.95;;;;;22.10;100131.00;;;;2069434;28;20206;-57
2023/10/12 03:37:53;;;;;;;6.95;6.22;;;;;22.10;100131.00;;;;2059224;28;20297;-57
2023/10/12 03:43:12;;;;;;;7.35;5.60;;;;;22.10;100126.00;;;;2049980;28;20222;-57
2023/10/12 03:44:33;;;;;;;5.82;5.20;;;;;22.10;100130.00;;;;2063846;28;20253;-57
2023/10/12 03:45:34;;;;;;;6.55;5.88;;;;;22.10;100137.00;;;;2065340;28;20241;-57
2023/10/12 03:46:34;;;;;;;6.80;5.97;;;;;22.10;100132.00;;;;2060555;28;20912;-57
2023/10/12 03:48:02;;;;;;;7.60;5.80;;;;;22.10;100141.00;;;;2050663;28;20241;-57
2023/10/12 03:49:17;;;;;;;6.45;5.78;;;;;22.10;100148.00;;;;2066934;28;20600;-57
2023/10/12 03:50:19;;;;;;;6.25;5.40;;;;;22.10;100155.00;;;;2069625;28;20287;-57
2023/10/12 03:52:28;;;;;;;9.25;6.32;;;;;22.10;100161.00;;;;2064627;28;20214;-57
2023/10/12 03:53:34;;;;;;;8.05;6.30;;;;;22.10;100168.00;;;;2067811;28;20222;-58
2023/10/12 03:54:35;;;;;;;7.65;5.47;;;;;22.10;100161.00;;;;2069829;28;20209;-58
2023/10/12 03:55:42;;;;;;;9.60;5.83;;;;;22.10;100142.00;;;;2067644;28;20195;-57
2023/10/12 03:56:42;;;;;;;9.23;6.28;;;;;22.10;100167.00;;;;2061793;28;20206;-57
2023/10/12 03:58:47;;;;;;;8.50;5.53;;;;;22.10;100176.00;;;;2061275;28;20217;-57
2023/10/12 03:59:59;;;;;;;7.18;5.63;;;;;22.10;100174.00;;;;2068640;28;20260;-57
2023/10/12 04:01:35;;;;;;;9.55;5.80;;;;;22.10;100172.00;;;;2069923;28;20578;-57
2023/10/12 04:02:26;;;;;;;7.70;5.70;;;;;22.10;100174.00;;;;2060204;28;20214;-61
2023/10/12 04:03:36;;;;;;;7.27;5.77;;;;;22.10;100174.00;;;;2073514;28;20252;-59
2023/10/12 04:04:45;;;;;;;8.52;6.00;;;;;22.10;100171.00;;;;2069332;28;20234;-57
2023/10/12 04:05:54;;;;;;;7.75;5.25;;;;;22.10;100174.00;;;;2070254;28;20298;-57
2023/10/12 04:09:14;;;;;;;9.93;6.15;;;;;22.10;100154.00;;;;2070270;28;20242;-56
2023/10/12 04:10:41;;;;;;;7.70;6.13;;;;;22.10;100151.00;;;;2069625;28;20584;-57
2023/10/12 04:11:49;;;;;;;6.93;5.28;;;;;22.10;100162.00;;;;2067378;28;20220;-57
2023/10/12 04:12:54;;;;;;;6.85;5.88;;;;;22.10;100155.00;;;;2065948;28;20286;-57
2023/10/12 04:14:54;;;;;;;7.00;5.27;;;;;22.10;100152.00;;;;2066219;28;20269;-57
2023/10/12 04:17:09;;;;;;;6.63;5.63;;;;;22.10;100149.00;;;;2061808;28;20226;-58
2023/10/12 04:18:13;;;;;;;7.05;5.50;;;;;22.10;100153.00;;;;2068797;28;20222;-57
2023/10/12 04:19:31;;;;;;;6.10;5.50;;;;;22.10;100151.00;;;;2074032;28;20222;-57
2023/10/12 04:20:33;;;;;;;6.53;5.82;;;;;22.10;100153.00;;;;2068721;28;20566;-57
2023/10/12 04:21:36;;;;;;;7.55;5.47;;;;;22.10;100152.00;;;;2069849;28;20210;-57
2023/10/12 04:26:08;;;;;;;6.38;5.05;;;;;22.10;100152.00;;;;2062887;28;20227;-57
2023/10/12 04:27:41;;;;;;;9.37;6.07;;;;;22.10;100162.00;;;;2059102;28;20280;-57
2023/10/12 04:28:50;;;;;;;8.25;5.60;;;;;22.10;100228.00;;;;2073618;28;20313;-57
2023/10/12 04:29:56;;;;;;;6.53;5.40;;;;;22.10;100176.00;;;;2069341;28;20616;-56
2023/10/12 04:32:09;;;;;;;6.30;5.30;;;;;22.10;100177.00;;;;2064332;28;20221;-58
2023/10/12 04:34:10;;;;;;;8.30;5.07;;;;;22.10;100161.00;;;;2068927;28;20322;-57
2023/10/12 04:37:36;;;;;;;6.18;5.28;;;;;22.10;100171.00;;;;2057436;28;20230;-57
2023/10/12 04:39:49;;;;;;;7.85;5.90;;;;;22.00;100148.00;;;;2067857;28;20210;-57
2023/10/12 04:42:20;;;;;;;6.20;5.60;;;;;22.00;100151.00;;;;2054619;28;20250;-58
2023/10/12 04:43:24;;;;;;;6.93;5.32;;;;;22.00;100152.00;;;;2062495;28;20225;-57
2023/10/12 04:45:27;;;;;;;5.93;5.10;;;;;22.00;100160.00;;;;2066347;28;20962;-57
2023/10/12 04:46:28;;;;;;;8.48;5.60;;;;;22.00;100152.00;;;;2068923;28;20732;-57
2023/10/12 04:47:30;;;;;;;7.10;5.70;;;;;22.00;100159.00;;;;2061029;28;20234;-58
2023/10/12 04:48:31;;;;;;;5.80;5.18;;;;;22.00;100160.00;;;;2066249;28;20285;-57
2023/10/12 04:50:52;;;;;;;7.05;4.80;;;;;22.00;100169.00;;;;2077461;28;20201;-57
2023/10/12 04:53:13;;;;;;;6.45;5.75;;;;;22.00;100174.00;;;;2069530;28;20225;-57
2023/10/12 04:54:23;;;;;;;9.35;5.05;;;;;22.00;100174.00;;;;2067394;28;20729;-57
2023/10/12 04:55:23;;;;;;;8.10;5.15;;;;;22.00;100184.00;;;;2070050;28;20226;-57
2023/10/12 04:56:26;;;;;;;6.83;5.30;;;;;22.10;100183.00;;;;2066369;28;20227;-57
2023/10/12 04:57:26;;;;;;;6.72;4.72;;;;;22.00;100183.00;;;;2055900;28;20229;-57
2023/10/12 04:59:29;;;;;;;7.00;5.07;;;;;22.00;100188.00;;;;2061420;28;20301;-58
2023/10/12 05:00:47;;;;;;;6.28;5.53;;;;;22.00;100183.00;;;;2054227;28;20215;-57
2023/10/12 05:03:22;;;;;;;6.03;5.30;;;;;22.00;100193.00;;;;2060478;28;20221;-57
2023/10/12 05:04:36;;;;;;;6.72;5.15;;;;;22.00;100189.00;;;;2064674;28;20235;-57
2023/10/12 05:05:56;;;;;;;9.30;5.60;;;;;22.00;100191.00;;;;2063941;28;20317;-57
2023/10/12 05:08:08;;;;;;;6.97;4.95;;;;;22.00;100203.00;;;;2072438;28;21137;-57
2023/10/12 05:09:11;;;;;;;5.60;4.87;;;;;22.00;100196.00;;;;2069813;28;20211;-57
2023/10/12 05:10:15;;;;;;;5.50;5.00;;;;;22.00;100192.00;;;;2068807;28;20217;-57
2023/10/12 05:11:15;;;;;;;6.65;4.90;;;;;22.00;100196.00;;;;2072434;28;20614;-57
2023/10/12 05:12:28;;;;;;;7.00;5.30;;;;;22.00;100205.00;;;;2059342;28;20214;-57
2023/10/12 05:13:29;;;;;;;6.28;5.53;;;;;22.00;100201.00;;;;2066897;28;20242;-57
2023/10/12 05:14:33;;;;;;;7.40;5.00;;;;;22.00;100203.00;;;;2070614;28;20233;-57
2023/10/12 05:15:40;;;;;;;9.18;5.53;;;;;22.00;100210.00;;;;2061234;28;20207;-58
2023/10/12 05:16:45;;;;;;;7.13;5.47;;;;;22.00;100204.00;;;;2060286;28;20278;-57
2023/10/12 05:17:45;;;;;;;8.05;5.55;;;;;22.00;100202.00;;;;2058250;28;20563;-57
2023/10/12 05:18:47;;;;;;;6.37;5.37;;;;;22.00;100196.00;;;;2069376;28;20228;-57
2023/10/12 05:19:52;;;;;;;8.02;6.00;;;;;22.00;100204.00;;;;2073877;28;20233;-57
2023/10/12 05:20:53;;;;;;;8.38;5.47;;;;;22.00;100206.00;;;;2067914;28;20230;-56
2023/10/12 05:21:55;;;;;;;5.80;5.20;;;;;22.00;100208.00;;;;2068006;28;20336;-57
2023/10/12 05:22:55;;;;;;;6.30;5.20;;;;;22.00;100210.00;;;;2057948;28;20859;-57
2023/10/12 05:23:55;;;;;;;5.77;4.47;;;;;22.00;100209.00;;;;2067857;28;20245;-57
2023/10/12 05:24:56;;;;;;;5.43;4.70;;;;;21.80;100202.00;;;;2072508;28;20230;-57
2023/10/12 05:27:09;;;;;;;6.85;4.53;;;;;22.00;100214.00;;;;2073780;28;20221;-58
2023/10/12 05:28:14;;;;;;;5.68;4.75;;;;;22.00;100218.00;;;;2060077;28;20237;-57
2023/10/12 05:30:26;;;;;;;6.97;5.38;;;;;22.00;100210.00;;;;2061121;28;20218;-57
2023/10/12 05:31:28;;;;;;;5.75;5.25;;;;;21.90;100147.00;;;;2068420;28;20222;-56
2023/10/12 05:32:37;;;;;;;5.78;4.88;;;;;22.00;100217.00;;;;2055954;28;20223;-58
2023/10/12 05:35:49;;;;;;;8.50;5.20;;;;;22.00;100220.00;;;;2071200;28;20218;-57
2023/10/12 05:36:49;;;;;;;6.50;5.38;;;;;22.00;100212.00;;;;2068522;28;20265;-57
2023/10/12 05:37:49;;;;;;;9.07;5.30;;;;;22.00;100218.00;;;;2058470;28;20591;-57
2023/10/12 05:38:51;;;;;;;6.83;5.53;;;;;22.00;100217.00;;;;2068854;28;20594;-57
2023/10/12 05:39:52;;;;;;;5.72;4.60;;;;;22.00;100217.00;;;;2065496;28;20226;-57
2023/10/12 05:40:55;;;;;;;6.03;5.10;;;;;22.00;100221.00;;;;2068680;28;20226;-57
2023/10/12 05:41:59;;;;;;;5.63;4.68;;;;;22.00;100221.00;;;;2067912;28;20234;-57
2023/10/12 05:42:59;;;;;;;6.03;4.72;;;;;22.00;100217.00;;;;2059101;28;20225;-58
2023/10/12 05:44:04;;;;;;;9.10;6.50;;;;;22.10;100226.00;;;;2069464;28;20840;-57
2023/10/12 05:45:21;;;;;;;8.30;5.82;;;;;22.10;100217.00;;;;2068004;28;20213;-57
2023/10/12 05:46:21;;;;;;;9.05;5.47;;;;;22.10;100209.00;;;;2070229;28;20293;-57
2023/10/12 05:47:30;;;;;;;6.90;5.30;;;;;22.00;100220.00;;;;2058875;28;20384;-57
2023/10/12 05:48:33;;;;;;;6.28;5.05;;;;;21.40;100213.00;;;;2052693;28;20226;-58
2023/10/12 05:49:33;;;;;;;8.48;5.75;;;;;22.00;100217.00;;;;2053599;28;20222;-58
2023/10/12 05:50:35;;;;;;;6.60;5.17;;;;;22.10;100212.00;;;;2067886;28;20216;-58
2023/10/12 05:51:37;;;;;;;7.28;4.78;;;;;22.10;100204.00;;;;2067177;28;20222;-58
2023/10/12 05:52:39;;;;;;;7.80;5.22;;;;;22.10;100209.00;;;;2057614;28;20344;-57
2023/10/12 05:53:39;;;;;;;8.63;5.05;;;;;22.10;100211.00;;;;2071762;28;20206;-57
2023/10/12 05:54:39;;;;;;;6.07;4.80;;;;;22.10;100211.00;;;;2074525;28;20555;-57
2023/10/12 05:55:41;;;;;;;8.90;5.57;;;;;22.10;100214.00;;;;2070646;28;20834;-57
2023/10/12 05:56:43;;;;;;;10.52;5.38;;;;;22.10;100206.00;;;;2061348;28;20222;-57
2023/10/12 05:57:44;;;;;;;6.25;4.53;;;;;22.10;100209.00;;;;2059510;28;20218;-57
2023/10/12 05:58:44;;;;;;;8.10;4.97;;;;;22.10;100214.00;;;;2064723;28;20219;-57
2023/10/12 05:59:47;;;;;;;6.07;4.40;;;;;22.10;100217.00;;;;2063240;28;20239;-57
2023/10/12 06:00:52;;;;;;;9.18;5.70;;;;;22.10;100211.00;;;;2064485;28;20222;-57
2023/10/12 06:01:52;;;;;;;5.80;5.03;;;;;22.10;100207.00;;;;2067135;28;20297;-57